createdAt,value
2023-04-26T00:01:31.279Z,2.80
2023-04-26T00:03:58.332Z,2.58
2023-04-26T00:06:27.367Z,3.30
2023-04-26T00:08:54.622Z,3.55
2023-04-26T00:11:21.794Z,3.13
2023-04-26T00:13:48.458Z,3.40
2023-04-26T00:16:15.535Z,3.55
2023-04-26T00:18:43.367Z,3.38
2023-04-26T00:21:10.108Z,3.00
2023-04-26T00:23:36.842Z,2.38
2023-04-26T00:26:04.613Z,3.47
2023-04-26T00:28:31.872Z,2.63
2023-04-26T00:30:58.436Z,3.28
2023-04-26T00:33:26.500Z,5.43
2023-04-26T00:35:53.102Z,4.70
2023-04-26T00:38:19.853Z,6.78
2023-04-26T00:40:46.753Z,7.03
2023-04-26T00:43:13.547Z,6.38
2023-04-26T00:45:40.422Z,6.78
2023-04-26T00:48:07.480Z,5.60
2023-04-26T00:50:34.409Z,6.40
2023-04-26T00:53:02.799Z,6.47
2023-04-26T00:55:30.008Z,7.30
2023-04-26T00:57:56.851Z,7.15
2023-04-26T01:00:23.592Z,6.07
2023-04-26T01:02:51.356Z,5.15
2023-04-26T01:05:18.374Z,4.97
2023-04-26T01:07:45.310Z,4.93
2023-04-26T01:10:12.520Z,6.28
2023-04-26T01:12:39.671Z,7.22
2023-04-26T01:15:06.801Z,6.35
2023-04-26T01:17:33.959Z,7.70
2023-04-26T01:20:00.957Z,8.02
2023-04-26T01:22:28.751Z,8.48
2023-04-26T01:24:58.340Z,7.78
2023-04-26T01:27:25.428Z,6.55
2023-04-26T01:29:52.200Z,6.45
2023-04-26T01:32:18.899Z,7.28
2023-04-26T01:34:45.734Z,7.13
2023-04-26T01:37:12.951Z,6.28
2023-04-26T01:39:39.854Z,7.05
2023-04-26T01:42:06.576Z,7.90
2023-04-26T01:44:33.247Z,7.80
2023-04-26T01:46:59.854Z,7.80
2023-04-26T01:49:26.585Z,8.23
2023-04-26T01:51:53.514Z,8.63
2023-04-26T01:54:20.124Z,8.73
2023-04-26T01:56:46.780Z,8.95
2023-04-26T01:59:13.348Z,9.43
2023-04-26T02:01:42.672Z,8.98
2023-04-26T02:04:09.891Z,8.77
2023-04-26T02:06:38.036Z,6.78
2023-04-26T02:09:05.194Z,6.00
2023-04-26T02:11:31.908Z,4.97
2023-04-26T02:13:58.707Z,4.03
2023-04-26T02:16:25.669Z,3.60
2023-04-26T02:18:53.677Z,5.15
2023-04-26T02:21:21.676Z,4.97
2023-04-26T02:23:48.564Z,7.43
2023-04-26T02:26:16.015Z,6.88
2023-04-26T02:28:43.184Z,8.23
2023-04-26T02:31:10.069Z,8.00
2023-04-26T02:33:36.857Z,5.93
2023-04-26T02:36:08.519Z,7.95
2023-04-26T02:38:36.599Z,6.60
2023-04-26T02:41:04.887Z,6.80
2023-04-26T02:43:31.444Z,7.03
2023-04-26T02:46:00.575Z,6.82
2023-04-26T02:48:27.298Z,7.15
2023-04-26T02:50:53.936Z,6.38
2023-04-26T02:53:21.140Z,7.00
2023-04-26T02:55:47.938Z,7.20
2023-04-26T02:58:14.812Z,6.80
2023-04-26T03:00:47.356Z,5.22
2023-04-26T03:03:14.928Z,4.07
2023-04-26T03:05:41.854Z,4.03
2023-04-26T03:08:09.794Z,3.88
2023-04-26T03:10:36.478Z,3.33
2023-04-26T03:13:05.053Z,3.35
2023-04-26T03:15:31.743Z,2.53
2023-04-26T03:17:58.596Z,2.90
2023-04-26T03:20:25.840Z,2.47
2023-04-26T03:22:52.725Z,2.80
2023-04-26T03:25:20.100Z,2.58
2023-04-26T03:27:46.736Z,2.42
2023-04-26T03:30:13.833Z,2.20
2023-04-26T03:32:40.531Z,2.92
2023-04-26T03:35:07.467Z,2.63
2023-04-26T03:37:34.422Z,2.28
2023-04-26T03:40:01.044Z,3.13
2023-04-26T03:42:27.631Z,3.20
2023-04-26T03:44:54.244Z,3.55
2023-04-26T03:47:21.270Z,2.83
2023-04-26T03:49:47.803Z,3.45
2023-04-26T03:52:14.459Z,3.42
2023-04-26T03:54:41.215Z,1.80
2023-04-26T03:57:07.824Z,2.35
2023-04-26T03:59:34.512Z,2.78
2023-04-26T04:02:01.206Z,1.60
2023-04-26T04:04:28.141Z,1.90
2023-04-26T04:06:55.041Z,2.22
2023-04-26T04:09:21.809Z,0.88
2023-04-26T04:11:48.536Z,1.27
2023-04-26T04:14:15.191Z,2.33
2023-04-26T04:16:41.854Z,3.08
2023-04-26T04:19:08.919Z,2.70
2023-04-26T04:21:35.818Z,3.90
2023-04-26T04:24:02.507Z,5.28
2023-04-26T04:26:29.593Z,6.07
2023-04-26T04:28:56.520Z,7.13
2023-04-26T04:31:23.421Z,6.50
2023-04-26T04:33:50.181Z,7.15
2023-04-26T04:36:17.037Z,7.65
2023-04-26T04:38:44.437Z,7.60
2023-04-26T04:41:11.019Z,8.80
2023-04-26T04:43:37.989Z,7.05
2023-04-26T04:46:04.745Z,6.20
2023-04-26T04:48:31.304Z,10.68
2023-04-26T04:50:58.620Z,7.00
2023-04-26T04:53:25.244Z,5.88
2023-04-26T04:55:51.879Z,4.85
2023-04-26T04:58:18.528Z,3.00
2023-04-26T05:00:45.773Z,2.47
2023-04-26T05:03:15.320Z,2.35
2023-04-26T05:05:42.203Z,1.98
2023-04-26T05:08:09.075Z,2.95
2023-04-26T05:10:36.236Z,3.63
2023-04-26T05:13:03.130Z,7.28
2023-04-26T05:15:29.821Z,8.63
2023-04-26T05:17:56.600Z,3.63
2023-04-26T05:20:23.451Z,3.55
2023-04-26T05:22:50.014Z,1.48
2023-04-26T05:25:17.680Z,1.52
2023-04-26T05:27:46.184Z,2.65
2023-04-26T05:30:13.615Z,2.05
2023-04-26T05:32:40.527Z,2.05
2023-04-26T05:35:07.438Z,1.08
2023-04-26T05:37:34.717Z,1.42
2023-04-26T05:40:02.573Z,1.58
2023-04-26T05:42:29.179Z,2.97
2023-04-26T05:44:59.384Z,1.10
2023-04-26T05:47:26.400Z,1.60
2023-04-26T05:49:53.381Z,1.02
2023-04-26T05:52:19.944Z,1.17
2023-04-26T05:54:46.531Z,1.30
2023-04-26T05:57:13.237Z,1.70
2023-04-26T05:59:40.266Z,1.48
2023-04-26T06:02:07.133Z,1.73
2023-04-26T06:04:34.013Z,1.50
2023-04-26T06:07:01.022Z,1.80
2023-04-26T06:09:27.843Z,3.88
2023-04-26T06:11:54.686Z,2.35
2023-04-26T06:14:30.064Z,3.08
2023-04-26T06:16:58.363Z,2.35
2023-04-26T06:19:25.296Z,2.35
2023-04-26T06:21:55.629Z,2.08
2023-04-26T06:24:25.623Z,1.92
2023-04-26T06:26:52.965Z,1.58
2023-04-26T06:29:21.359Z,2.55
2023-04-26T06:31:48.032Z,2.22
2023-04-26T06:34:16.299Z,1.48
2023-04-26T06:36:42.934Z,1.25
2023-04-26T06:39:09.751Z,1.20
2023-04-26T06:41:36.312Z,1.30
2023-04-26T06:44:02.950Z,1.48
2023-04-26T06:46:29.623Z,1.77
2023-04-26T06:48:56.467Z,1.73
2023-04-26T06:51:23.095Z,2.00
2023-04-26T06:53:49.986Z,1.10
2023-04-26T06:56:16.995Z,1.23
2023-04-26T06:59:01.907Z,1.52
2023-04-26T07:01:29.755Z,1.30
2023-04-26T07:03:59.500Z,1.08
2023-04-26T07:06:26.529Z,1.60
2023-04-26T07:08:54.111Z,1.65
2023-04-26T07:11:23.337Z,2.10
2023-04-26T07:13:51.914Z,1.90
2023-04-26T07:16:18.947Z,1.58
2023-04-26T07:18:45.647Z,2.03
2023-04-26T07:21:12.402Z,1.10
2023-04-26T07:23:39.032Z,1.15
2023-04-26T07:26:06.155Z,1.65
2023-04-26T07:28:33.863Z,1.38
2023-04-26T07:31:01.609Z,1.20
2023-04-26T07:33:28.631Z,2.63
2023-04-26T07:36:00.130Z,1.40
2023-04-26T07:38:27.326Z,1.10
2023-04-26T07:40:54.132Z,1.35
2023-04-26T07:43:21.349Z,0.90
2023-04-26T07:45:48.100Z,1.13
2023-04-26T07:48:15.793Z,1.05
2023-04-26T07:50:42.894Z,1.10
2023-04-26T07:53:09.532Z,1.33
2023-04-26T07:55:37.516Z,1.30
2023-04-26T07:58:04.760Z,1.80
2023-04-26T08:00:31.606Z,1.92
2023-04-26T08:02:58.561Z,1.52
2023-04-26T08:05:25.674Z,1.67
2023-04-26T08:07:52.466Z,1.50
2023-04-26T08:10:19.203Z,1.55
2023-04-26T08:12:45.873Z,1.60
2023-04-26T08:15:12.970Z,1.10
2023-04-26T08:17:39.815Z,1.25
2023-04-26T08:20:07.276Z,1.55
2023-04-26T08:22:33.846Z,1.10
2023-04-26T08:25:00.510Z,1.20
2023-04-26T08:27:28.817Z,1.50
2023-04-26T08:29:55.433Z,0.80
2023-04-26T08:32:22.242Z,1.48
2023-04-26T08:34:49.135Z,0.80
2023-04-26T08:37:15.865Z,1.10
2023-04-26T08:39:42.429Z,0.70
2023-04-26T08:42:17.144Z,0.82
2023-04-26T08:44:45.447Z,3.53
2023-04-26T08:47:29.478Z,0.88
2023-04-26T08:50:03.730Z,0.88
2023-04-26T08:52:32.147Z,0.90
2023-04-26T08:55:00.408Z,0.70
2023-04-26T08:57:27.613Z,0.50
2023-04-26T08:59:58.355Z,0.55
2023-04-26T09:02:25.509Z,0.80
2023-04-26T09:04:52.401Z,0.80
2023-04-26T09:07:33.809Z,0.70
2023-04-26T09:10:01.296Z,0.50
2023-04-26T09:12:28.010Z,0.55
2023-04-26T09:14:54.758Z,0.70
2023-04-26T09:17:36.747Z,0.50
2023-04-26T09:20:28.061Z,0.50
2023-04-26T09:23:05.715Z,1.15
2023-04-26T09:25:33.772Z,0.60
2023-04-26T09:28:01.710Z,0.57
2023-04-26T09:30:28.996Z,0.88
2023-04-26T09:32:59.351Z,0.65
2023-04-26T09:35:26.236Z,0.50
2023-04-26T09:38:00.274Z,0.50
2023-04-26T09:40:31.790Z,0.50
2023-04-26T09:43:03.659Z,0.60
2023-04-26T09:45:32.390Z,0.50
2023-04-26T09:48:22.775Z,0.52
2023-04-26T09:50:54.651Z,0.50
2023-04-26T09:53:39.403Z,0.40
2023-04-26T09:56:17.677Z,0.30
2023-04-26T09:58:44.412Z,0.30
2023-04-26T10:01:14.130Z,0.50
2023-04-26T10:03:42.734Z,0.32
2023-04-26T10:06:09.862Z,0.40
2023-04-26T10:08:36.953Z,0.30
2023-04-26T10:11:05.279Z,0.40
2023-04-26T10:13:32.913Z,0.30
2023-04-26T10:16:01.518Z,0.30
2023-04-26T10:18:29.007Z,0.30
2023-04-26T10:21:00.256Z,0.20
2023-04-26T10:23:27.350Z,0.28
2023-04-26T10:25:55.005Z,0.30
2023-04-26T10:28:40.297Z,0.30
2023-04-26T10:31:07.913Z,0.30
2023-04-26T10:33:34.612Z,0.30
2023-04-26T10:36:04.703Z,0.20
2023-04-26T10:38:32.946Z,0.20
2023-04-26T10:41:31.169Z,0.32
2023-04-26T10:44:00.285Z,0.22
2023-04-26T10:46:40.855Z,0.30
2023-04-26T10:49:18.563Z,0.30
2023-04-26T10:52:13.027Z,0.20
2023-04-26T10:54:49.825Z,0.20
2023-04-26T10:57:17.124Z,0.30
2023-04-26T11:00:14.558Z,0.20
2023-04-26T11:02:52.348Z,0.30
2023-04-26T11:05:54.300Z,0.40
2023-04-26T11:08:32.452Z,0.30
2023-04-26T11:11:08.913Z,0.40
2023-04-26T11:13:37.895Z,0.30
2023-04-26T11:16:07.160Z,0.30
2023-04-26T11:18:35.569Z,0.30
2023-04-26T11:21:02.664Z,0.20
2023-04-26T11:23:30.378Z,0.20
2023-04-26T11:26:03.637Z,0.20
2023-04-26T11:28:35.089Z,0.30
2023-04-26T11:31:04.444Z,0.30
2023-04-26T11:33:31.396Z,0.30
2023-04-26T11:35:58.593Z,0.30
2023-04-26T11:38:26.942Z,0.28
2023-04-26T11:40:58.529Z,0.30
2023-04-26T11:43:38.119Z,0.30
2023-04-26T11:46:10.002Z,0.40
2023-04-26T11:48:38.786Z,0.40
2023-04-26T11:51:07.660Z,0.30
2023-04-26T11:53:43.891Z,0.40
2023-04-26T11:56:18.401Z,0.30
2023-04-26T11:58:53.139Z,0.55
2023-04-26T12:01:27.454Z,0.35
2023-04-26T12:03:56.273Z,0.40
2023-04-26T12:06:30.632Z,0.40
2023-04-26T12:08:57.558Z,0.30
2023-04-26T12:11:24.157Z,0.40
2023-04-26T12:13:50.944Z,0.50
2023-04-26T12:18:52.331Z,0.40
2023-04-26T12:21:19.726Z,0.40
2023-04-26T12:23:48.327Z,0.30
2023-04-26T12:26:15.817Z,0.30
2023-04-26T12:28:43.342Z,0.30
2023-04-26T12:31:10.052Z,0.22
2023-04-26T12:33:37.143Z,0.30
2023-04-26T12:36:12.090Z,0.22
2023-04-26T12:38:39.774Z,0.30
2023-04-26T12:41:06.895Z,0.32
2023-04-26T12:43:33.569Z,0.30
2023-04-26T12:46:01.279Z,0.30
2023-04-26T12:48:28.960Z,0.30
2023-04-26T12:50:56.047Z,0.30
2023-04-26T12:53:22.679Z,0.20
2023-04-26T12:55:49.505Z,0.50
2023-04-26T12:58:16.407Z,0.30
2023-04-26T13:00:44.587Z,0.30
2023-04-26T13:03:14.642Z,0.30
2023-04-26T13:05:42.031Z,0.45
2023-04-26T13:08:08.956Z,0.30
2023-04-26T13:10:35.609Z,0.40
2023-04-26T13:13:02.238Z,0.40
2023-04-26T13:15:29.883Z,0.40
2023-04-26T13:17:57.042Z,0.40
2023-04-26T13:20:25.998Z,0.40
2023-04-26T13:22:54.083Z,0.40
2023-04-26T13:25:20.902Z,0.45
2023-04-26T13:27:47.958Z,0.40
2023-04-26T13:30:14.880Z,0.40
2023-04-26T13:32:43.999Z,0.50
2023-04-26T13:35:12.173Z,0.40
2023-04-26T13:37:38.789Z,0.50
2023-04-26T13:40:06.228Z,0.40
2023-04-26T13:42:32.868Z,0.90
2023-04-26T13:45:00.276Z,0.60
2023-04-26T13:47:28.150Z,0.40
2023-04-26T13:49:54.749Z,0.50
2023-04-26T13:52:21.813Z,0.60
2023-04-26T13:54:48.535Z,0.50
2023-04-26T13:57:15.285Z,0.40
2023-04-26T13:59:42.018Z,0.50
2023-04-26T14:02:08.710Z,0.50
2023-04-26T14:04:35.585Z,0.75
2023-04-26T14:07:02.459Z,0.60
2023-04-26T14:09:29.040Z,0.70
2023-04-26T14:12:07.305Z,0.60
2023-04-26T14:14:35.697Z,0.50
2023-04-26T14:17:02.284Z,0.70
2023-04-26T14:19:29.273Z,0.60
2023-04-26T14:21:56.252Z,0.50
2023-04-26T14:24:22.970Z,0.68
2023-04-26T14:26:49.745Z,0.70
2023-04-26T14:29:16.784Z,0.73
2023-04-26T14:31:43.387Z,0.70
2023-04-26T14:34:10.350Z,0.70
2023-04-26T14:36:37.163Z,1.08
2023-04-26T14:39:04.291Z,0.70
2023-04-26T14:41:31.289Z,1.00
2023-04-26T14:43:57.968Z,0.85
2023-04-26T14:46:24.580Z,0.80
2023-04-26T14:48:51.363Z,0.77
2023-04-26T14:51:17.987Z,1.00
2023-04-26T14:53:44.686Z,0.80
2023-04-26T14:56:11.376Z,0.90
2023-04-26T14:58:38.112Z,1.15
2023-04-26T15:01:04.996Z,0.80
2023-04-26T15:03:32.763Z,1.00
2023-04-26T15:06:00.115Z,0.95
2023-04-26T15:08:27.964Z,1.20
2023-04-26T15:10:54.686Z,1.20
2023-04-26T15:13:21.458Z,1.00
2023-04-26T15:15:48.366Z,1.10
2023-04-26T15:18:14.969Z,1.17
2023-04-26T15:20:41.621Z,1.58
2023-04-26T15:23:08.573Z,0.82
2023-04-26T15:25:36.955Z,1.55
2023-04-26T15:28:04.718Z,1.83
2023-04-26T15:30:31.552Z,1.20
2023-04-26T15:32:58.474Z,1.58
2023-04-26T15:35:25.314Z,1.77
2023-04-26T15:37:53.847Z,1.73
2023-04-26T15:40:21.899Z,1.48
2023-04-26T15:42:49.294Z,1.90
2023-04-26T15:45:15.934Z,1.58
2023-04-26T15:47:42.715Z,2.25
2023-04-26T15:50:09.971Z,1.38
2023-04-26T15:52:39.206Z,0.77
2023-04-26T15:55:10.048Z,1.73
2023-04-26T15:57:36.988Z,1.65
2023-04-26T16:00:06.060Z,1.63
2023-04-26T16:02:32.696Z,1.95
2023-04-26T16:04:59.599Z,1.90
2023-04-26T16:07:26.634Z,2.08
2023-04-26T16:09:53.283Z,2.75
2023-04-26T16:12:19.875Z,2.40
2023-04-26T16:14:46.499Z,2.25
2023-04-26T16:17:13.642Z,3.03
2023-04-26T16:19:40.421Z,2.88
2023-04-26T16:22:06.950Z,2.83
2023-04-26T16:24:33.738Z,2.45
2023-04-26T16:27:00.761Z,2.40
2023-04-26T16:29:27.874Z,2.53
2023-04-26T16:31:54.667Z,2.53
2023-04-26T16:34:22.008Z,2.70
2023-04-26T16:36:48.641Z,2.63
2023-04-26T16:39:16.324Z,3.03
2023-04-26T16:41:43.396Z,2.70
2023-04-26T16:44:10.393Z,2.50
2023-04-26T16:46:37.784Z,2.70
2023-04-26T16:49:09.600Z,2.30
2023-04-26T16:51:37.417Z,2.70
2023-04-26T16:54:04.958Z,3.08
2023-04-26T16:56:32.340Z,3.28
2023-04-26T16:58:59.568Z,2.72
2023-04-26T17:01:26.888Z,2.70
2023-04-26T17:03:54.382Z,2.80
2023-04-26T17:06:21.240Z,2.65
2023-04-26T17:08:48.334Z,2.35
2023-04-26T17:11:16.891Z,3.13
2023-04-26T17:13:44.381Z,2.83
2023-04-26T17:16:11.298Z,3.00
2023-04-26T17:18:38.566Z,3.70
2023-04-26T17:21:06.054Z,3.05
2023-04-26T17:23:33.937Z,2.55
2023-04-26T17:26:02.154Z,2.67
2023-04-26T17:28:29.245Z,3.38
2023-04-26T17:30:55.967Z,2.85
2023-04-26T17:33:22.909Z,3.70
2023-04-26T17:35:49.623Z,2.88
2023-04-26T17:38:16.414Z,3.17
2023-04-26T17:40:43.267Z,2.90
2023-04-26T17:43:09.937Z,3.13
2023-04-26T17:45:36.566Z,2.97
2023-04-26T17:48:03.385Z,2.30
2023-04-26T17:50:30.368Z,2.97
2023-04-26T17:52:57.041Z,2.92
2023-04-26T17:55:23.731Z,3.33
2023-04-26T17:57:50.771Z,3.33
2023-04-26T18:00:19.618Z,4.50
2023-04-26T18:02:46.328Z,2.67
2023-04-26T18:05:13.419Z,2.90
2023-04-26T18:07:40.249Z,3.30
2023-04-26T18:10:07.621Z,3.03
2023-04-26T18:12:34.584Z,2.70
2023-04-26T18:15:01.285Z,3.47
2023-04-26T18:17:28.189Z,3.55
2023-04-26T18:19:54.795Z,3.05
2023-04-26T18:22:21.545Z,3.10
2023-04-26T18:24:48.322Z,4.38
2023-04-26T18:27:15.741Z,3.10
2023-04-26T18:29:42.535Z,2.20
2023-04-26T18:32:09.244Z,1.85
2023-04-26T18:34:36.009Z,2.10
2023-04-26T18:37:02.759Z,2.03
2023-04-26T18:39:29.556Z,2.05
2023-04-26T18:41:56.270Z,2.08
2023-04-26T18:44:23.480Z,2.17
2023-04-26T18:46:52.072Z,1.90
2023-04-26T18:49:18.901Z,1.73
2023-04-26T18:51:45.855Z,1.50
2023-04-26T18:54:12.524Z,1.83
2023-04-26T18:56:41.600Z,1.70
2023-04-26T18:59:08.410Z,1.80
2023-04-26T19:01:35.044Z,1.58
2023-04-26T19:04:02.331Z,2.30
2023-04-26T19:06:29.140Z,6.72
2023-04-26T19:08:55.804Z,2.00
2023-04-26T19:11:22.445Z,2.30
2023-04-26T19:13:49.144Z,1.95
2023-04-26T19:16:15.774Z,1.92
2023-04-26T19:18:44.232Z,2.28
2023-04-26T19:21:11.043Z,2.50
2023-04-26T19:23:38.050Z,1.95
2023-04-26T19:26:06.321Z,2.20
2023-04-26T19:28:32.978Z,2.03
2023-04-26T19:30:59.714Z,1.73
2023-04-26T19:33:27.278Z,1.90
2023-04-26T19:35:56.441Z,1.80
2023-04-26T19:38:24.266Z,2.40
2023-04-26T19:40:53.931Z,2.10
2023-04-26T19:43:20.926Z,2.40
2023-04-26T19:45:48.008Z,2.55
2023-04-26T19:48:15.081Z,1.92
2023-04-26T19:50:44.165Z,1.73
2023-04-26T19:53:13.172Z,1.92
2023-04-26T19:55:41.203Z,2.08
2023-04-26T19:58:08.275Z,2.08
2023-04-26T20:00:39.150Z,1.92
2023-04-26T20:03:06.686Z,3.70
2023-04-26T20:05:34.112Z,2.17
2023-04-26T20:08:02.053Z,2.10
2023-04-26T20:10:33.847Z,1.95
2023-04-26T20:13:00.954Z,2.20
2023-04-26T20:15:27.983Z,1.95
2023-04-26T20:17:55.092Z,2.10
2023-04-26T20:20:21.895Z,1.95
2023-04-26T20:22:48.589Z,1.85
2023-04-26T20:25:15.895Z,2.22
2023-04-26T20:27:43.164Z,1.85
2023-04-26T20:30:10.935Z,2.03
2023-04-26T20:32:37.558Z,1.80
2023-04-26T20:35:05.284Z,1.80
2023-04-26T20:37:32.070Z,2.00
2023-04-26T20:39:58.737Z,1.70
2023-04-26T20:42:25.670Z,2.20
2023-04-26T20:44:52.320Z,1.98
2023-04-26T20:47:19.405Z,2.13
2023-04-26T20:49:46.225Z,1.95
2023-04-26T20:52:13.256Z,1.90
2023-04-26T20:54:39.931Z,2.05
2023-04-26T20:57:06.907Z,1.60
2023-04-26T20:59:33.630Z,1.60
2023-04-26T21:02:00.412Z,1.25
2023-04-26T21:04:27.222Z,1.50
2023-04-26T21:06:54.084Z,1.25
2023-04-26T21:09:21.654Z,1.90
2023-04-26T21:11:48.304Z,1.35
2023-04-26T21:14:14.939Z,1.33
2023-04-26T21:16:41.681Z,1.42
2023-04-26T21:19:08.519Z,1.60
2023-04-26T21:21:35.432Z,1.10
2023-04-26T21:24:03.303Z,1.23
2023-04-26T21:26:30.641Z,1.20
2023-04-26T21:28:57.332Z,1.10
2023-04-26T21:31:23.981Z,1.02
2023-04-26T21:33:50.865Z,1.40
2023-04-26T21:36:17.659Z,1.30
2023-04-26T21:38:44.432Z,1.27
2023-04-26T21:41:11.047Z,0.90
2023-04-26T21:43:37.660Z,1.05
2023-04-26T21:46:04.440Z,0.82
2023-04-26T21:48:31.405Z,1.42
2023-04-26T21:50:58.177Z,0.93
2023-04-26T21:53:24.733Z,1.42
2023-04-26T21:55:53.334Z,0.82
2023-04-26T21:58:23.265Z,1.15
2023-04-26T22:00:50.852Z,0.77
2023-04-26T22:03:18.241Z,1.50
2023-04-26T22:05:45.119Z,1.00
2023-04-26T22:08:11.687Z,0.85
2023-04-26T22:10:38.603Z,1.10
2023-04-26T22:13:05.472Z,0.98
2023-04-26T22:15:32.207Z,0.98
2023-04-26T22:17:58.928Z,0.90
2023-04-26T22:20:26.633Z,0.93
2023-04-26T22:22:53.858Z,0.82
2023-04-26T22:25:20.874Z,0.80
2023-04-26T22:27:48.687Z,0.80
2023-04-26T22:30:25.295Z,0.68
2023-04-26T22:32:55.546Z,0.95
2023-04-26T22:35:26.770Z,0.80
2023-04-26T22:37:53.995Z,0.80
2023-04-26T22:40:21.068Z,0.80
2023-04-26T22:42:47.784Z,0.73
2023-04-26T22:45:14.597Z,0.80
2023-04-26T22:47:41.638Z,0.68
2023-04-26T22:50:08.838Z,0.70
2023-04-26T22:52:35.884Z,0.85
2023-04-26T22:55:02.936Z,0.60
2023-04-26T22:57:31.258Z,0.70
2023-04-26T22:59:58.384Z,0.50
2023-04-26T23:02:25.146Z,0.60
2023-04-26T23:04:52.046Z,0.60
2023-04-26T23:07:18.870Z,0.60
2023-04-26T23:09:45.662Z,0.63
2023-04-26T23:12:17.077Z,0.50
2023-04-26T23:14:43.693Z,0.60
2023-04-26T23:17:12.099Z,0.60
2023-04-26T23:19:38.839Z,0.60
2023-04-26T23:22:05.473Z,0.57
2023-04-26T23:24:32.207Z,0.50
2023-04-26T23:26:58.919Z,0.50
2023-04-26T23:29:26.108Z,0.65
2023-04-26T23:31:52.758Z,0.60
2023-04-26T23:34:19.431Z,0.60
2023-04-26T23:36:46.171Z,0.50
2023-04-26T23:39:12.986Z,0.50
2023-04-26T23:41:39.761Z,0.50
2023-04-26T23:44:06.330Z,0.50
2023-04-26T23:46:33.116Z,0.50
2023-04-26T23:49:00.125Z,0.50
2023-04-26T23:51:27.663Z,0.50
2023-04-26T23:53:54.320Z,0.50
2023-04-26T23:56:21.152Z,0.50
2023-04-26T23:58:48.019Z,0.68
